sensor_id;sensor_type;location;lat;lon;timestamp;temperature;humidity
49124;DHT22;48506;48.202;16.274;2024-03-23T00:53:52;12.90;90.40
49124;DHT22;48506;48.202;16.274;2024-03-23T00:56:18;12.90;90.40
49124;DHT22;48506;48.202;16.274;2024-03-23T00:58:44;12.90;90.40
49124;DHT22;48506;48.202;16.274;2024-03-23T01:01:10;12.90;90.40
49124;DHT22;48506;48.202;16.274;2024-03-23T01:03:35;12.80;90.50
49124;DHT22;48506;48.202;16.274;2024-03-23T01:06:02;12.80;90.50
49124;DHT22;48506;48.202;16.274;2024-03-23T01:08:28;12.80;90.50
49124;DHT22;48506;48.202;16.274;2024-03-23T01:10:58;12.80;90.60
49124;DHT22;48506;48.202;16.274;2024-03-23T01:13:25;12.80;90.70
49124;DHT22;48506;48.202;16.274;2024-03-23T01:15:51;12.80;90.60
49124;DHT22;48506;48.202;16.274;2024-03-23T01:18:18;12.80;90.60
49124;DHT22;48506;48.202;16.274;2024-03-23T01:20:45;12.80;90.70
49124;DHT22;48506;48.202;16.274;2024-03-23T01:23:11;12.80;90.70
49124;DHT22;48506;48.202;16.274;2024-03-23T01:25:38;12.80;90.70
49124;DHT22;48506;48.202;16.274;2024-03-23T01:28:04;12.80;90.80
49124;DHT22;48506;48.202;16.274;2024-03-23T01:30:32;12.70;90.90
49124;DHT22;48506;48.202;16.274;2024-03-23T01:32:58;12.70;91.00
49124;DHT22;48506;48.202;16.274;2024-03-23T01:35:24;12.70;90.90
49124;DHT22;48506;48.202;16.274;2024-03-23T01:37:52;12.70;91.00
49124;DHT22;48506;48.202;16.274;2024-03-23T01:40:18;12.80;91.00
49124;DHT22;48506;48.202;16.274;2024-03-23T01:43:06;12.90;91.10
49124;DHT22;48506;48.202;16.274;2024-03-23T01:45:34;12.90;90.90
49124;DHT22;48506;48.202;16.274;2024-03-23T01:48:01;12.90;90.70
49124;DHT22;48506;48.202;16.274;2024-03-23T01:50:30;12.80;91.00
49124;DHT22;48506;48.202;16.274;2024-03-23T01:53:00;12.80;90.80
49124;DHT22;48506;48.202;16.274;2024-03-23T01:55:28;12.80;91.00
49124;DHT22;48506;48.202;16.274;2024-03-23T01:57:57;12.90;90.80
49124;DHT22;48506;48.202;16.274;2024-03-23T02:00:23;12.90;90.80
49124;DHT22;48506;48.202;16.274;2024-03-23T02:02:49;12.90;90.80
49124;DHT22;48506;48.202;16.274;2024-03-23T02:05:15;13.00;90.60
49124;DHT22;48506;48.202;16.274;2024-03-23T02:07:42;13.00;90.50
49124;DHT22;48506;48.202;16.274;2024-03-23T02:10:10;13.00;90.60
49124;DHT22;48506;48.202;16.274;2024-03-23T02:12:36;13.10;90.70
49124;DHT22;48506;48.202;16.274;2024-03-23T02:15:03;13.10;90.50
49124;DHT22;48506;48.202;16.274;2024-03-23T02:17:34;13.10;90.50
49124;DHT22;48506;48.202;16.274;2024-03-23T02:20:01;13.10;90.60
49124;DHT22;48506;48.202;16.274;2024-03-23T02:22:37;13.10;90.40
49124;DHT22;48506;48.202;16.274;2024-03-23T02:25:05;13.20;90.50
49124;DHT22;48506;48.202;16.274;2024-03-23T02:27:32;13.10;90.80
49124;DHT22;48506;48.202;16.274;2024-03-23T02:29:59;13.10;90.70
49124;DHT22;48506;48.202;16.274;2024-03-23T02:32:24;13.10;90.90
49124;DHT22;48506;48.202;16.274;2024-03-23T02:34:50;13.00;90.80
49124;DHT22;48506;48.202;16.274;2024-03-23T02:37:16;13.00;91.00
49124;DHT22;48506;48.202;16.274;2024-03-23T02:39:42;13.00;91.00
49124;DHT22;48506;48.202;16.274;2024-03-23T02:42:08;13.00;91.20
49124;DHT22;48506;48.202;16.274;2024-03-23T02:44:34;12.90;91.30
49124;DHT22;48506;48.202;16.274;2024-03-23T02:47:00;12.90;91.30
49124;DHT22;48506;48.202;16.274;2024-03-23T02:49:27;12.80;91.20
49124;DHT22;48506;48.202;16.274;2024-03-23T02:51:53;12.80;91.40
49124;DHT22;48506;48.202;16.274;2024-03-23T02:54:19;12.80;91.60
49124;DHT22;48506;48.202;16.274;2024-03-23T02:56:44;12.70;91.90
49124;DHT22;48506;48.202;16.274;2024-03-23T02:59:11;12.70;91.60
49124;DHT22;48506;48.202;16.274;2024-03-23T03:01:37;12.70;91.60
49124;DHT22;48506;48.202;16.274;2024-03-23T03:04:02;12.70;91.60
49124;DHT22;48506;48.202;16.274;2024-03-23T03:06:30;12.60;91.70
49124;DHT22;48506;48.202;16.274;2024-03-23T03:08:56;12.60;91.80
49124;DHT22;48506;48.202;16.274;2024-03-23T03:11:21;12.60;91.70
49124;DHT22;48506;48.202;16.274;2024-03-23T03:13:47;12.60;91.80
49124;DHT22;48506;48.202;16.274;2024-03-23T03:16:13;12.60;91.90
49124;DHT22;48506;48.202;16.274;2024-03-23T03:18:40;12.50;91.90
49124;DHT22;48506;48.202;16.274;2024-03-23T03:21:07;12.50;92.00
49124;DHT22;48506;48.202;16.274;2024-03-23T03:23:39;12.50;92.00
49124;DHT22;48506;48.202;16.274;2024-03-23T03:26:06;12.40;92.00
49124;DHT22;48506;48.202;16.274;2024-03-23T03:28:32;12.40;92.10
49124;DHT22;48506;48.202;16.274;2024-03-23T03:30:59;12.40;92.10
49124;DHT22;48506;48.202;16.274;2024-03-23T03:33:27;12.30;92.20
49124;DHT22;48506;48.202;16.274;2024-03-23T03:35:54;12.40;92.30
49124;DHT22;48506;48.202;16.274;2024-03-23T03:38:20;12.40;92.20
49124;DHT22;48506;48.202;16.274;2024-03-23T03:40:46;12.40;92.10
49124;DHT22;48506;48.202;16.274;2024-03-23T03:43:12;12.40;92.10
49124;DHT22;48506;48.202;16.274;2024-03-23T03:45:38;12.40;92.20
49124;DHT22;48506;48.202;16.274;2024-03-23T03:48:04;12.40;92.20
49124;DHT22;48506;48.202;16.274;2024-03-23T03:50:30;12.40;92.20
49124;DHT22;48506;48.202;16.274;2024-03-23T03:52:56;12.50;92.10
49124;DHT22;48506;48.202;16.274;2024-03-23T03:55:22;12.50;92.10
49124;DHT22;48506;48.202;16.274;2024-03-23T03:57:48;12.40;92.20
49124;DHT22;48506;48.202;16.274;2024-03-23T04:00:15;12.40;92.30
49124;DHT22;48506;48.202;16.274;2024-03-23T04:02:41;12.30;92.40
49124;DHT22;48506;48.202;16.274;2024-03-23T04:05:07;12.30;92.40
49124;DHT22;48506;48.202;16.274;2024-03-23T04:07:33;12.30;92.40
49124;DHT22;48506;48.202;16.274;2024-03-23T04:09:59;12.40;92.50
49124;DHT22;48506;48.202;16.274;2024-03-23T04:12:25;12.40;92.50
49124;DHT22;48506;48.202;16.274;2024-03-23T04:14:51;12.30;92.30
49124;DHT22;48506;48.202;16.274;2024-03-23T04:17:17;12.30;92.50
49124;DHT22;48506;48.202;16.274;2024-03-23T04:19:44;12.40;92.50
49124;DHT22;48506;48.202;16.274;2024-03-23T04:22:10;12.30;92.40
49124;DHT22;48506;48.202;16.274;2024-03-23T04:24:36;12.30;92.50
49124;DHT22;48506;48.202;16.274;2024-03-23T04:27:02;12.40;92.70
49124;DHT22;48506;48.202;16.274;2024-03-23T04:29:28;12.30;92.60
49124;DHT22;48506;48.202;16.274;2024-03-23T04:31:55;12.30;92.70
49124;DHT22;48506;48.202;16.274;2024-03-23T04:34:21;12.30;92.80
49124;DHT22;48506;48.202;16.274;2024-03-23T04:36:48;12.30;92.80
49124;DHT22;48506;48.202;16.274;2024-03-23T04:39:14;12.30;93.10
49124;DHT22;48506;48.202;16.274;2024-03-23T04:41:39;12.30;92.90
49124;DHT22;48506;48.202;16.274;2024-03-23T04:44:06;12.20;92.90
49124;DHT22;48506;48.202;16.274;2024-03-23T04:46:32;12.30;92.90
49124;DHT22;48506;48.202;16.274;2024-03-23T04:48:58;12.30;92.90
49124;DHT22;48506;48.202;16.274;2024-03-23T04:51:24;12.30;92.90
49124;DHT22;48506;48.202;16.274;2024-03-23T04:53:50;12.30;93.10
49124;DHT22;48506;48.202;16.274;2024-03-23T04:56:16;12.30;93.10
49124;DHT22;48506;48.202;16.274;2024-03-23T04:58:43;12.30;93.10
49124;DHT22;48506;48.202;16.274;2024-03-23T05:01:10;12.20;93.20
49124;DHT22;48506;48.202;16.274;2024-03-23T05:03:36;12.20;93.20
49124;DHT22;48506;48.202;16.274;2024-03-23T05:06:02;12.20;93.10
49124;DHT22;48506;48.202;16.274;2024-03-23T05:08:28;12.20;93.20
49124;DHT22;48506;48.202;16.274;2024-03-23T05:10:54;12.20;93.20
49124;DHT22;48506;48.202;16.274;2024-03-23T05:13:20;12.20;93.20
49124;DHT22;48506;48.202;16.274;2024-03-23T05:15:54;12.20;93.50
49124;DHT22;48506;48.202;16.274;2024-03-23T05:18:21;12.20;93.40
49124;DHT22;48506;48.202;16.274;2024-03-23T05:20:47;12.20;93.40
49124;DHT22;48506;48.202;16.274;2024-03-23T05:23:13;12.20;93.40
49124;DHT22;48506;48.202;16.274;2024-03-23T05:25:39;12.20;93.50
49124;DHT22;48506;48.202;16.274;2024-03-23T05:28:05;12.20;93.50
49124;DHT22;48506;48.202;16.274;2024-03-23T05:30:32;12.30;93.40
49124;DHT22;48506;48.202;16.274;2024-03-23T05:32:59;12.30;93.30
49124;DHT22;48506;48.202;16.274;2024-03-23T05:35:25;12.30;93.30
49124;DHT22;48506;48.202;16.274;2024-03-23T05:37:51;12.30;93.30
49124;DHT22;48506;48.202;16.274;2024-03-23T05:40:17;12.40;93.50
49124;DHT22;48506;48.202;16.274;2024-03-23T05:42:42;12.40;93.40
49124;DHT22;48506;48.202;16.274;2024-03-23T05:45:08;12.50;93.50
49124;DHT22;48506;48.202;16.274;2024-03-23T05:47:34;12.50;93.30
49124;DHT22;48506;48.202;16.274;2024-03-23T05:50:00;12.60;93.40
49124;DHT22;48506;48.202;16.274;2024-03-23T05:52:27;12.70;93.30
49124;DHT22;48506;48.202;16.274;2024-03-23T05:54:53;12.80;93.20
49124;DHT22;48506;48.202;16.274;2024-03-23T05:57:19;12.80;92.90
49124;DHT22;48506;48.202;16.274;2024-03-23T05:59:45;12.90;92.90
49124;DHT22;48506;48.202;16.274;2024-03-23T06:02:11;13.00;92.90
49124;DHT22;48506;48.202;16.274;2024-03-23T06:04:37;13.10;92.60
49124;DHT22;48506;48.202;16.274;2024-03-23T06:07:04;13.10;92.30
49124;DHT22;48506;48.202;16.274;2024-03-23T06:09:32;13.10;92.30
49124;DHT22;48506;48.202;16.274;2024-03-23T06:11:58;13.10;92.20
49124;DHT22;48506;48.202;16.274;2024-03-23T06:14:24;13.20;92.30
49124;DHT22;48506;48.202;16.274;2024-03-23T06:16:50;13.20;92.10
49124;DHT22;48506;48.202;16.274;2024-03-23T06:19:16;13.30;92.20
49124;DHT22;48506;48.202;16.274;2024-03-23T06:21:45;13.40;92.10
49124;DHT22;48506;48.202;16.274;2024-03-23T06:24:11;13.40;92.10
49124;DHT22;48506;48.202;16.274;2024-03-23T06:26:37;13.50;92.00
49124;DHT22;48506;48.202;16.274;2024-03-23T06:29:03;13.50;92.20
49124;DHT22;48506;48.202;16.274;2024-03-23T06:31:31;13.60;92.20
49124;DHT22;48506;48.202;16.274;2024-03-23T06:33:57;13.60;92.00
49124;DHT22;48506;48.202;16.274;2024-03-23T06:36:23;13.60;92.00
49124;DHT22;48506;48.202;16.274;2024-03-23T06:38:49;13.60;92.10
49124;DHT22;48506;48.202;16.274;2024-03-23T06:41:15;13.60;92.30
49124;DHT22;48506;48.202;16.274;2024-03-23T06:43:40;13.50;92.20
49124;DHT22;48506;48.202;16.274;2024-03-23T06:46:07;13.50;92.10
49124;DHT22;48506;48.202;16.274;2024-03-23T06:48:32;13.50;92.20
49124;DHT22;48506;48.202;16.274;2024-03-23T06:50:58;13.50;92.10
49124;DHT22;48506;48.202;16.274;2024-03-23T06:53:24;13.50;92.30
49124;DHT22;48506;48.202;16.274;2024-03-23T06:55:51;13.60;92.30
49124;DHT22;48506;48.202;16.274;2024-03-23T06:58:20;13.60;92.30
49124;DHT22;48506;48.202;16.274;2024-03-23T07:00:46;13.60;92.40
49124;DHT22;48506;48.202;16.274;2024-03-23T07:03:12;13.70;92.30
49124;DHT22;48506;48.202;16.274;2024-03-23T07:05:38;13.70;92.30
49124;DHT22;48506;48.202;16.274;2024-03-23T07:08:04;13.70;92.30
49124;DHT22;48506;48.202;16.274;2024-03-23T07:10:30;13.70;92.30
49124;DHT22;48506;48.202;16.274;2024-03-23T07:12:56;13.70;92.40
49124;DHT22;48506;48.202;16.274;2024-03-23T07:15:22;13.80;92.40
49124;DHT22;48506;48.202;16.274;2024-03-23T07:17:48;13.90;92.40
49124;DHT22;48506;48.202;16.274;2024-03-23T07:20:14;13.90;92.50
49124;DHT22;48506;48.202;16.274;2024-03-23T07:22:40;14.10;92.60
49124;DHT22;48506;48.202;16.274;2024-03-23T07:25:06;14.10;92.60
49124;DHT22;48506;48.202;16.274;2024-03-23T07:27:32;14.20;92.30
49124;DHT22;48506;48.202;16.274;2024-03-23T07:29:59;14.30;92.30
49124;DHT22;48506;48.202;16.274;2024-03-23T07:32:26;14.40;92.10
49124;DHT22;48506;48.202;16.274;2024-03-23T07:34:52;14.40;92.00
49124;DHT22;48506;48.202;16.274;2024-03-23T07:37:19;14.40;91.80
49124;DHT22;48506;48.202;16.274;2024-03-23T07:39:45;14.40;91.50
49124;DHT22;48506;48.202;16.274;2024-03-23T07:42:10;14.40;91.60
49124;DHT22;48506;48.202;16.274;2024-03-23T07:44:36;14.50;91.50
49124;DHT22;48506;48.202;16.274;2024-03-23T07:47:06;14.50;91.30
49124;DHT22;48506;48.202;16.274;2024-03-23T07:49:33;14.50;91.30
49124;DHT22;48506;48.202;16.274;2024-03-23T07:51:59;14.50;91.20
49124;DHT22;48506;48.202;16.274;2024-03-23T07:54:24;14.70;91.20
49124;DHT22;48506;48.202;16.274;2024-03-23T07:56:50;14.90;91.00
49124;DHT22;48506;48.202;16.274;2024-03-23T07:59:16;15.00;90.40
49124;DHT22;48506;48.202;16.274;2024-03-23T08:01:44;15.10;90.30
49124;DHT22;48506;48.202;16.274;2024-03-23T08:04:09;15.30;90.40
49124;DHT22;48506;48.202;16.274;2024-03-23T08:06:35;15.40;90.00
49124;DHT22;48506;48.202;16.274;2024-03-23T08:09:01;15.70;89.10
49124;DHT22;48506;48.202;16.274;2024-03-23T08:11:29;16.00;88.50
49124;DHT22;48506;48.202;16.274;2024-03-23T08:13:57;16.20;87.00
49124;DHT22;48506;48.202;16.274;2024-03-23T08:16:23;16.30;87.40
49124;DHT22;48506;48.202;16.274;2024-03-23T08:18:53;16.60;88.00
49124;DHT22;48506;48.202;16.274;2024-03-23T08:21:20;16.90;86.80
49124;DHT22;48506;48.202;16.274;2024-03-23T08:23:46;17.30;86.60
49124;DHT22;48506;48.202;16.274;2024-03-23T08:26:15;17.50;84.80
49124;DHT22;48506;48.202;16.274;2024-03-23T08:28:42;17.80;84.80
49124;DHT22;48506;48.202;16.274;2024-03-23T08:31:09;18.10;84.20
49124;DHT22;48506;48.202;16.274;2024-03-23T08:33:35;18.40;84.10
49124;DHT22;48506;48.202;16.274;2024-03-23T08:36:08;18.70;82.50
49124;DHT22;48506;48.202;16.274;2024-03-23T08:38:35;18.90;82.00
49124;DHT22;48506;48.202;16.274;2024-03-23T08:41:02;19.20;81.30
49124;DHT22;48506;48.202;16.274;2024-03-23T08:43:29;19.40;80.50
49124;DHT22;48506;48.202;16.274;2024-03-23T08:46:08;19.60;79.80
49124;DHT22;48506;48.202;16.274;2024-03-23T08:48:37;19.80;79.10
49124;DHT22;48506;48.202;16.274;2024-03-23T08:51:05;20.00;79.00
49124;DHT22;48506;48.202;16.274;2024-03-23T08:53:32;20.30;78.30
49124;DHT22;48506;48.202;16.274;2024-03-23T08:55:59;20.40;77.10
49124;DHT22;48506;48.202;16.274;2024-03-23T08:58:30;20.60;77.30
49124;DHT22;48506;48.202;16.274;2024-03-23T09:01:02;20.80;75.40
49124;DHT22;48506;48.202;16.274;2024-03-23T09:03:29;20.90;75.70
49124;DHT22;48506;48.202;16.274;2024-03-23T09:05:55;21.00;76.20
49124;DHT22;48506;48.202;16.274;2024-03-23T09:08:21;21.20;75.60
49124;DHT22;48506;48.202;16.274;2024-03-23T09:10:48;21.40;75.20
49124;DHT22;48506;48.202;16.274;2024-03-23T09:13:14;21.60;74.60
49124;DHT22;48506;48.202;16.274;2024-03-23T09:15:48;21.70;73.80
49124;DHT22;48506;48.202;16.274;2024-03-23T09:18:15;21.90;73.80
49124;DHT22;48506;48.202;16.274;2024-03-23T09:20:41;22.10;72.60
49124;DHT22;48506;48.202;16.274;2024-03-23T09:23:07;22.30;72.60
49124;DHT22;48506;48.202;16.274;2024-03-23T09:25:39;22.40;70.00
49124;DHT22;48506;48.202;16.274;2024-03-23T09:28:06;22.50;70.20
49124;DHT22;48506;48.202;16.274;2024-03-23T09:30:35;22.80;70.50
49124;DHT22;48506;48.202;16.274;2024-03-23T09:33:03;22.90;69.50
49124;DHT22;48506;48.202;16.274;2024-03-23T09:35:29;23.20;69.30
49124;DHT22;48506;48.202;16.274;2024-03-23T09:37:55;23.30;69.10
49124;DHT22;48506;48.202;16.274;2024-03-23T09:40:22;23.60;68.60
49124;DHT22;48506;48.202;16.274;2024-03-23T09:42:51;23.90;68.60
49124;DHT22;48506;48.202;16.274;2024-03-23T09:45:21;24.20;67.60
49124;DHT22;48506;48.202;16.274;2024-03-23T09:47:48;24.50;67.70
49124;DHT22;48506;48.202;16.274;2024-03-23T09:50:15;24.60;66.10
49124;DHT22;48506;48.202;16.274;2024-03-23T09:52:41;24.60;66.20
49124;DHT22;48506;48.202;16.274;2024-03-23T09:55:08;24.40;65.70
49124;DHT22;48506;48.202;16.274;2024-03-23T09:57:35;24.50;66.00
49124;DHT22;48506;48.202;16.274;2024-03-23T10:00:02;24.60;64.70
49124;DHT22;48506;48.202;16.274;2024-03-23T10:02:29;24.90;66.00
49124;DHT22;48506;48.202;16.274;2024-03-23T10:04:54;25.10;64.10
49124;DHT22;48506;48.202;16.274;2024-03-23T10:07:21;25.20;63.70
49124;DHT22;48506;48.202;16.274;2024-03-23T10:09:48;25.20;62.50
49124;DHT22;48506;48.202;16.274;2024-03-23T10:12:18;25.30;60.70
49124;DHT22;48506;48.202;16.274;2024-03-23T10:14:48;25.30;62.70
49124;DHT22;48506;48.202;16.274;2024-03-23T10:17:21;25.20;61.00
49124;DHT22;48506;48.202;16.274;2024-03-23T10:19:52;24.90;62.20
49124;DHT22;48506;48.202;16.274;2024-03-23T10:22:20;24.80;62.50
49124;DHT22;48506;48.202;16.274;2024-03-23T10:24:47;24.80;61.60
49124;DHT22;48506;48.202;16.274;2024-03-23T10:29:48;25.10;61.40
49124;DHT22;48506;48.202;16.274;2024-03-23T10:32:16;25.40;62.20
49124;DHT22;48506;48.202;16.274;2024-03-23T10:34:43;25.80;60.20
49124;DHT22;48506;48.202;16.274;2024-03-23T10:37:10;26.00;59.30
49124;DHT22;48506;48.202;16.274;2024-03-23T10:39:40;26.10;58.80
49124;DHT22;48506;48.202;16.274;2024-03-23T10:42:08;26.20;55.70
49124;DHT22;48506;48.202;16.274;2024-03-23T10:44:36;26.10;54.00
49124;DHT22;48506;48.202;16.274;2024-03-23T10:47:03;26.00;54.30
49124;DHT22;48506;48.202;16.274;2024-03-23T10:49:32;25.90;55.60
49124;DHT22;48506;48.202;16.274;2024-03-23T10:52:03;26.10;55.00
49124;DHT22;48506;48.202;16.274;2024-03-23T10:54:30;26.10;52.90
49124;DHT22;48506;48.202;16.274;2024-03-23T10:57:02;25.70;53.20
49124;DHT22;48506;48.202;16.274;2024-03-23T10:59:31;25.40;53.20
49124;DHT22;48506;48.202;16.274;2024-03-23T11:01:58;25.40;56.10
49124;DHT22;48506;48.202;16.274;2024-03-23T11:04:36;25.60;54.40
49124;DHT22;48506;48.202;16.274;2024-03-23T11:07:31;25.60;53.60
49124;DHT22;48506;48.202;16.274;2024-03-23T11:09:58;25.60;55.20
49124;DHT22;48506;48.202;16.274;2024-03-23T11:12:25;25.80;54.10
49124;DHT22;48506;48.202;16.274;2024-03-23T11:15:05;26.10;54.10
49124;DHT22;48506;48.202;16.274;2024-03-23T11:17:32;26.20;52.80
49124;DHT22;48506;48.202;16.274;2024-03-23T11:19:59;26.00;52.70
49124;DHT22;48506;48.202;16.274;2024-03-23T11:25:26;25.50;53.30
49124;DHT22;48506;48.202;16.274;2024-03-23T11:27:53;25.10;54.90
49124;DHT22;48506;48.202;16.274;2024-03-23T11:30:21;25.30;54.80
49124;DHT22;48506;48.202;16.274;2024-03-23T11:33:00;25.70;55.30
49124;DHT22;48506;48.202;16.274;2024-03-23T11:35:32;25.90;54.30
49124;DHT22;48506;48.202;16.274;2024-03-23T11:38:15;25.60;54.10
49124;DHT22;48506;48.202;16.274;2024-03-23T11:40:48;25.10;56.50
49124;DHT22;48506;48.202;16.274;2024-03-23T11:43:18;24.70;54.10
49124;DHT22;48506;48.202;16.274;2024-03-23T11:45:46;24.20;54.70
49124;DHT22;48506;48.202;16.274;2024-03-23T11:48:15;23.80;55.00
49124;DHT22;48506;48.202;16.274;2024-03-23T11:50:45;23.70;55.80
49124;DHT22;48506;48.202;16.274;2024-03-23T11:55:58;24.20;56.70
49124;DHT22;48506;48.202;16.274;2024-03-23T11:58:25;24.40;58.80
49124;DHT22;48506;48.202;16.274;2024-03-23T12:00:59;24.90;56.30
49124;DHT22;48506;48.202;16.274;2024-03-23T12:03:27;25.10;55.90
49124;DHT22;48506;48.202;16.274;2024-03-23T12:06:00;25.30;55.70
49124;DHT22;48506;48.202;16.274;2024-03-23T12:08:32;25.50;55.10
49124;DHT22;48506;48.202;16.274;2024-03-23T12:11:12;25.50;55.60
49124;DHT22;48506;48.202;16.274;2024-03-23T12:13:39;25.50;55.30
49124;DHT22;48506;48.202;16.274;2024-03-23T12:16:11;25.80;55.30
49124;DHT22;48506;48.202;16.274;2024-03-23T12:18:42;25.90;55.90
49124;DHT22;48506;48.202;16.274;2024-03-23T12:21:09;25.50;54.80
49124;DHT22;48506;48.202;16.274;2024-03-23T12:23:35;25.10;54.90
49124;DHT22;48506;48.202;16.274;2024-03-23T12:26:01;24.60;55.20
49124;DHT22;48506;48.202;16.274;2024-03-23T12:28:28;24.20;55.40
49124;DHT22;48506;48.202;16.274;2024-03-23T12:30:54;23.90;56.80
49124;DHT22;48506;48.202;16.274;2024-03-23T12:33:20;23.70;56.20
49124;DHT22;48506;48.202;16.274;2024-03-23T12:35:47;23.40;57.60
49124;DHT22;48506;48.202;16.274;2024-03-23T12:38:13;23.20;57.40
49124;DHT22;48506;48.202;16.274;2024-03-23T12:40:39;23.00;57.90
49124;DHT22;48506;48.202;16.274;2024-03-23T12:43:07;22.80;58.40
49124;DHT22;48506;48.202;16.274;2024-03-23T12:45:36;22.70;59.00
49124;DHT22;48506;48.202;16.274;2024-03-23T12:48:02;22.50;59.50
49124;DHT22;48506;48.202;16.274;2024-03-23T12:50:28;22.20;63.00
49124;DHT22;48506;48.202;16.274;2024-03-23T12:52:54;21.80;65.90
49124;DHT22;48506;48.202;16.274;2024-03-23T12:55:20;21.30;67.00
49124;DHT22;48506;48.202;16.274;2024-03-23T12:57:46;21.10;67.90
49124;DHT22;48506;48.202;16.274;2024-03-23T13:00:13;21.00;68.20
49124;DHT22;48506;48.202;16.274;2024-03-23T13:02:39;20.70;70.30
49124;DHT22;48506;48.202;16.274;2024-03-23T13:05:05;20.40;71.90
49124;DHT22;48506;48.202;16.274;2024-03-23T13:07:31;19.90;72.90
49124;DHT22;48506;48.202;16.274;2024-03-23T13:09:57;19.40;73.80
49124;DHT22;48506;48.202;16.274;2024-03-23T13:12:23;18.80;74.60
49124;DHT22;48506;48.202;16.274;2024-03-23T13:14:50;18.40;75.10
49124;DHT22;48506;48.202;16.274;2024-03-23T13:17:15;18.30;75.60
49124;DHT22;48506;48.202;16.274;2024-03-23T13:19:41;18.10;75.50
49124;DHT22;48506;48.202;16.274;2024-03-23T13:22:08;17.70;76.00
49124;DHT22;48506;48.202;16.274;2024-03-23T13:24:37;17.50;76.10
49124;DHT22;48506;48.202;16.274;2024-03-23T13:27:03;17.20;77.00
49124;DHT22;48506;48.202;16.274;2024-03-23T13:29:31;16.80;78.10
49124;DHT22;48506;48.202;16.274;2024-03-23T13:31:57;16.50;79.10
49124;DHT22;48506;48.202;16.274;2024-03-23T13:34:23;16.00;80.40
49124;DHT22;48506;48.202;16.274;2024-03-23T13:36:49;15.70;81.40
49124;DHT22;48506;48.202;16.274;2024-03-23T13:39:15;15.40;82.70
49124;DHT22;48506;48.202;16.274;2024-03-23T13:41:45;15.10;83.80
49124;DHT22;48506;48.202;16.274;2024-03-23T13:44:13;14.90;84.60
49124;DHT22;48506;48.202;16.274;2024-03-23T13:46:41;14.80;85.80
49124;DHT22;48506;48.202;16.274;2024-03-23T13:49:29;14.60;85.50
49124;DHT22;48506;48.202;16.274;2024-03-23T13:51:56;14.50;86.70
49124;DHT22;48506;48.202;16.274;2024-03-23T13:54:26;14.40;87.00
49124;DHT22;48506;48.202;16.274;2024-03-23T13:56:53;14.40;88.00
49124;DHT22;48506;48.202;16.274;2024-03-23T13:59:23;14.30;89.00
49124;DHT22;48506;48.202;16.274;2024-03-23T14:01:50;14.10;89.70
49124;DHT22;48506;48.202;16.274;2024-03-23T14:04:19;14.00;89.40
49124;DHT22;48506;48.202;16.274;2024-03-23T14:06:49;13.90;87.90
49124;DHT22;48506;48.202;16.274;2024-03-23T14:09:15;13.90;88.30
49124;DHT22;48506;48.202;16.274;2024-03-23T14:11:47;13.80;88.70
49124;DHT22;48506;48.202;16.274;2024-03-23T14:14:13;13.70;88.80
49124;DHT22;48506;48.202;16.274;2024-03-23T14:16:39;13.60;89.50
49124;DHT22;48506;48.202;16.274;2024-03-23T14:19:04;13.50;88.30
49124;DHT22;48506;48.202;16.274;2024-03-23T14:21:31;13.40;88.20
49124;DHT22;48506;48.202;16.274;2024-03-23T14:23:57;13.30;88.80
49124;DHT22;48506;48.202;16.274;2024-03-23T14:26:23;13.20;88.80
49124;DHT22;48506;48.202;16.274;2024-03-23T14:28:50;13.10;89.80
49124;DHT22;48506;48.202;16.274;2024-03-23T14:31:16;12.90;90.20
49124;DHT22;48506;48.202;16.274;2024-03-23T14:33:42;12.80;90.90
49124;DHT22;48506;48.202;16.274;2024-03-23T14:36:16;12.60;91.50
49124;DHT22;48506;48.202;16.274;2024-03-23T14:38:51;12.50;91.70
49124;DHT22;48506;48.202;16.274;2024-03-23T14:41:18;12.30;91.90
49124;DHT22;48506;48.202;16.274;2024-03-23T14:43:44;12.10;92.20
49124;DHT22;48506;48.202;16.274;2024-03-23T14:46:15;12.10;92.60
49124;DHT22;48506;48.202;16.274;2024-03-23T14:48:43;12.00;91.90
49124;DHT22;48506;48.202;16.274;2024-03-23T14:51:10;11.90;92.40
49124;DHT22;48506;48.202;16.274;2024-03-23T14:53:40;11.80;92.30
49124;DHT22;48506;48.202;16.274;2024-03-23T14:56:08;11.70;93.20
49124;DHT22;48506;48.202;16.274;2024-03-23T14:58:36;11.70;93.30
49124;DHT22;48506;48.202;16.274;2024-03-23T15:01:06;11.60;93.30
49124;DHT22;48506;48.202;16.274;2024-03-23T15:03:36;11.60;92.90
49124;DHT22;48506;48.202;16.274;2024-03-23T15:06:05;11.50;92.70
49124;DHT22;48506;48.202;16.274;2024-03-23T15:08:32;11.40;93.50
49124;DHT22;48506;48.202;16.274;2024-03-23T15:11:01;11.30;93.20
49124;DHT22;48506;48.202;16.274;2024-03-23T15:13:37;11.20;93.00
49124;DHT22;48506;48.202;16.274;2024-03-23T15:16:04;11.10;93.80
49124;DHT22;48506;48.202;16.274;2024-03-23T15:18:30;11.00;95.00
49124;DHT22;48506;48.202;16.274;2024-03-23T15:20:59;10.80;95.30
49124;DHT22;48506;48.202;16.274;2024-03-23T15:23:29;10.80;95.40
49124;DHT22;48506;48.202;16.274;2024-03-23T15:25:56;10.60;95.90
49124;DHT22;48506;48.202;16.274;2024-03-23T15:28:23;10.50;96.20
49124;DHT22;48506;48.202;16.274;2024-03-23T15:30:49;10.40;96.20
49124;DHT22;48506;48.202;16.274;2024-03-23T15:33:15;10.30;96.70
49124;DHT22;48506;48.202;16.274;2024-03-23T15:35:41;10.30;96.80
49124;DHT22;48506;48.202;16.274;2024-03-23T15:38:07;10.20;96.80
49124;DHT22;48506;48.202;16.274;2024-03-23T15:40:35;10.10;97.40
49124;DHT22;48506;48.202;16.274;2024-03-23T15:43:01;10.10;97.30
49124;DHT22;48506;48.202;16.274;2024-03-23T15:45:27;10.10;97.20
49124;DHT22;48506;48.202;16.274;2024-03-23T15:47:53;10.10;97.10
49124;DHT22;48506;48.202;16.274;2024-03-23T15:50:19;10.10;96.90
49124;DHT22;48506;48.202;16.274;2024-03-23T15:52:45;10.20;96.90
49124;DHT22;48506;48.202;16.274;2024-03-23T15:55:11;10.20;96.90
49124;DHT22;48506;48.202;16.274;2024-03-23T15:57:37;10.20;96.50
49124;DHT22;48506;48.202;16.274;2024-03-23T16:00:03;10.10;95.70
49124;DHT22;48506;48.202;16.274;2024-03-23T16:02:29;10.10;95.40
49124;DHT22;48506;48.202;16.274;2024-03-23T16:04:55;10.00;95.30
49124;DHT22;48506;48.202;16.274;2024-03-23T16:07:23;10.00;94.60
49124;DHT22;48506;48.202;16.274;2024-03-23T16:09:49;10.00;95.10
49124;DHT22;48506;48.202;16.274;2024-03-23T16:12:15;10.00;94.50
49124;DHT22;48506;48.202;16.274;2024-03-23T16:14:42;10.10;94.40
49124;DHT22;48506;48.202;16.274;2024-03-23T16:17:08;10.00;94.30